Drakesboro, Kentucky
Current Conditions -  °F | °C
As of 1:15 AM on Saturday 29 Nov 2014 (Local Time) from K2I0 Reporting Station
Clear Clear  
Wind Chill: 37°   Ceiling: Unl
Heat Index: 42°   Visibility: 10mi
Dew Point: 29°   Wind: 9mph
Humidity: 59%   Direction: 200°SSW
Pressure: 30.06"   Gusts: NA
Location:  37.22°N, 87.05°W
Report Text: K2I0 290715Z AUTO 20008KT 10SM CLR 06/M02 A3006 RMK AO2 T00561018
Loading
Personal Weather Stations






























Interactive Weather Map New forecast layout! Learn more

10-Day Weather Forecast

Advertisements
Track Severe Weather on mobile